sensor_id;sensor_type;location;lat;lon;timestamp;P1;durP1;ratioP1;P2;durP2;ratioP2
12385;SDS011;6257;57.634;18.310;2024-03-02T00:00:40;16.90;;;10.97;;
12385;SDS011;6257;57.634;18.310;2024-03-02T00:03:07;16.47;;;11.20;;
12385;SDS011;6257;57.634;18.310;2024-03-02T00:05:35;17.03;;;10.80;;
12385;SDS011;6257;57.634;18.310;2024-03-02T00:08:03;15.57;;;10.83;;
12385;SDS011;6257;57.634;18.310;2024-03-02T00:10:33;15.87;;;10.80;;
12385;SDS011;6257;57.634;18.310;2024-03-02T00:13:04;14.43;;;11.80;;
12385;SDS011;6257;57.634;18.310;2024-03-02T00:15:44;15.47;;;11.80;;
12385;SDS011;6257;57.634;18.310;2024-03-02T00:18:14;15.03;;;11.17;;
12385;SDS011;6257;57.634;18.310;2024-03-02T00:20:45;17.33;;;11.80;;
12385;SDS011;6257;57.634;18.310;2024-03-02T00:23:14;14.20;;;11.23;;
12385;SDS011;6257;57.634;18.310;2024-03-02T00:25:42;16.80;;;11.97;;
12385;SDS011;6257;57.634;18.310;2024-03-02T00:28:16;17.90;;;12.60;;
12385;SDS011;6257;57.634;18.310;2024-03-02T00:30:57;16.90;;;12.23;;
12385;SDS011;6257;57.634;18.310;2024-03-02T00:33:30;17.43;;;12.30;;
12385;SDS011;6257;57.634;18.310;2024-03-02T00:35:58;19.23;;;13.50;;
12385;SDS011;6257;57.634;18.310;2024-03-02T00:38:26;17.87;;;12.67;;
12385;SDS011;6257;57.634;18.310;2024-03-02T00:40:54;15.90;;;12.03;;
12385;SDS011;6257;57.634;18.310;2024-03-02T00:46:15;19.10;;;13.03;;
12385;SDS011;6257;57.634;18.310;2024-03-02T00:48:53;18.20;;;12.87;;
12385;SDS011;6257;57.634;18.310;2024-03-02T00:51:21;18.80;;;13.07;;
12385;SDS011;6257;57.634;18.310;2024-03-02T00:53:49;20.63;;;13.53;;
12385;SDS011;6257;57.634;18.310;2024-03-02T00:56:16;16.50;;;12.53;;
12385;SDS011;6257;57.634;18.310;2024-03-02T00:58:44;18.40;;;13.60;;
12385;SDS011;6257;57.634;18.310;2024-03-02T01:01:12;19.20;;;13.83;;
12385;SDS011;6257;57.634;18.310;2024-03-02T01:03:41;18.37;;;13.70;;
12385;SDS011;6257;57.634;18.310;2024-03-02T01:06:08;20.07;;;13.30;;
12385;SDS011;6257;57.634;18.310;2024-03-02T01:08:35;20.03;;;13.47;;
12385;SDS011;6257;57.634;18.310;2024-03-02T01:11:03;21.27;;;14.10;;
12385;SDS011;6257;57.634;18.310;2024-03-02T01:13:31;18.80;;;13.67;;
12385;SDS011;6257;57.634;18.310;2024-03-02T01:15:59;19.83;;;13.97;;
12385;SDS011;6257;57.634;18.310;2024-03-02T01:18:27;18.87;;;14.13;;
12385;SDS011;6257;57.634;18.310;2024-03-02T01:20:55;19.90;;;15.57;;
12385;SDS011;6257;57.634;18.310;2024-03-02T01:23:23;18.43;;;14.37;;
12385;SDS011;6257;57.634;18.310;2024-03-02T01:25:50;18.17;;;14.10;;
12385;SDS011;6257;57.634;18.310;2024-03-02T01:28:17;20.20;;;13.47;;
12385;SDS011;6257;57.634;18.310;2024-03-02T01:30:46;20.00;;;13.53;;
12385;SDS011;6257;57.634;18.310;2024-03-02T01:33:13;20.80;;;14.70;;
12385;SDS011;6257;57.634;18.310;2024-03-02T01:35:41;19.30;;;14.20;;
12385;SDS011;6257;57.634;18.310;2024-03-02T01:38:09;15.80;;;13.13;;
12385;SDS011;6257;57.634;18.310;2024-03-02T01:40:36;19.53;;;14.60;;
12385;SDS011;6257;57.634;18.310;2024-03-02T01:43:04;18.23;;;13.70;;
12385;SDS011;6257;57.634;18.310;2024-03-02T01:45:31;19.13;;;14.13;;
12385;SDS011;6257;57.634;18.310;2024-03-02T01:47:57;18.27;;;14.17;;
12385;SDS011;6257;57.634;18.310;2024-03-02T01:50:25;19.77;;;14.40;;
12385;SDS011;6257;57.634;18.310;2024-03-02T01:52:55;19.97;;;15.40;;
12385;SDS011;6257;57.634;18.310;2024-03-02T01:55:22;21.90;;;15.07;;
12385;SDS011;6257;57.634;18.310;2024-03-02T01:57:49;21.37;;;14.17;;
12385;SDS011;6257;57.634;18.310;2024-03-02T02:00:17;20.63;;;14.73;;
12385;SDS011;6257;57.634;18.310;2024-03-02T02:02:45;23.03;;;14.53;;
12385;SDS011;6257;57.634;18.310;2024-03-02T02:05:13;20.43;;;14.37;;
12385;SDS011;6257;57.634;18.310;2024-03-02T02:07:40;17.57;;;13.40;;
12385;SDS011;6257;57.634;18.310;2024-03-02T02:10:09;20.70;;;14.57;;
12385;SDS011;6257;57.634;18.310;2024-03-02T02:12:37;21.57;;;15.07;;
12385;SDS011;6257;57.634;18.310;2024-03-02T02:15:07;20.40;;;14.77;;
12385;SDS011;6257;57.634;18.310;2024-03-02T02:17:48;20.03;;;14.27;;
12385;SDS011;6257;57.634;18.310;2024-03-02T02:20:15;22.23;;;15.13;;
12385;SDS011;6257;57.634;18.310;2024-03-02T02:22:53;22.17;;;15.10;;
12385;SDS011;6257;57.634;18.310;2024-03-02T02:25:24;21.40;;;14.03;;
12385;SDS011;6257;57.634;18.310;2024-03-02T02:27:51;21.17;;;14.63;;
12385;SDS011;6257;57.634;18.310;2024-03-02T02:30:19;20.13;;;14.53;;
12385;SDS011;6257;57.634;18.310;2024-03-02T02:32:47;20.87;;;15.40;;
12385;SDS011;6257;57.634;18.310;2024-03-02T02:35:14;18.67;;;13.93;;
12385;SDS011;6257;57.634;18.310;2024-03-02T02:37:41;21.27;;;15.17;;
12385;SDS011;6257;57.634;18.310;2024-03-02T02:40:11;22.00;;;15.47;;
12385;SDS011;6257;57.634;18.310;2024-03-02T02:42:39;21.00;;;15.00;;
12385;SDS011;6257;57.634;18.310;2024-03-02T02:45:06;19.87;;;14.10;;
12385;SDS011;6257;57.634;18.310;2024-03-02T02:47:34;20.10;;;14.17;;
12385;SDS011;6257;57.634;18.310;2024-03-02T02:50:01;19.50;;;15.00;;
12385;SDS011;6257;57.634;18.310;2024-03-02T02:52:32;19.37;;;14.80;;
12385;SDS011;6257;57.634;18.310;2024-03-02T02:55:01;19.80;;;15.23;;
12385;SDS011;6257;57.634;18.310;2024-03-02T02:57:31;20.40;;;14.83;;
12385;SDS011;6257;57.634;18.310;2024-03-02T03:00:01;21.10;;;15.33;;
12385;SDS011;6257;57.634;18.310;2024-03-02T03:02:35;21.40;;;14.90;;
12385;SDS011;6257;57.634;18.310;2024-03-02T03:05:07;21.07;;;13.87;;
12385;SDS011;6257;57.634;18.310;2024-03-02T03:07:34;20.57;;;14.13;;
12385;SDS011;6257;57.634;18.310;2024-03-02T03:10:01;23.20;;;15.23;;
12385;SDS011;6257;57.634;18.310;2024-03-02T03:12:31;22.90;;;15.87;;
12385;SDS011;6257;57.634;18.310;2024-03-02T03:14:58;21.00;;;15.33;;
12385;SDS011;6257;57.634;18.310;2024-03-02T03:17:25;19.13;;;15.13;;
12385;SDS011;6257;57.634;18.310;2024-03-02T03:19:53;17.47;;;13.97;;
12385;SDS011;6257;57.634;18.310;2024-03-02T03:22:20;18.90;;;14.47;;
12385;SDS011;6257;57.634;18.310;2024-03-02T03:24:47;19.63;;;14.57;;
12385;SDS011;6257;57.634;18.310;2024-03-02T03:27:14;18.27;;;14.13;;
12385;SDS011;6257;57.634;18.310;2024-03-02T03:29:42;21.30;;;14.20;;
12385;SDS011;6257;57.634;18.310;2024-03-02T03:32:09;21.93;;;14.40;;
12385;SDS011;6257;57.634;18.310;2024-03-02T03:34:36;19.37;;;14.07;;
12385;SDS011;6257;57.634;18.310;2024-03-02T03:37:03;21.87;;;14.20;;
12385;SDS011;6257;57.634;18.310;2024-03-02T03:39:30;26.33;;;14.67;;
12385;SDS011;6257;57.634;18.310;2024-03-02T03:41:57;20.53;;;14.43;;
12385;SDS011;6257;57.634;18.310;2024-03-02T03:44:24;19.67;;;13.67;;
12385;SDS011;6257;57.634;18.310;2024-03-02T03:46:52;19.00;;;13.63;;
12385;SDS011;6257;57.634;18.310;2024-03-02T03:49:19;22.37;;;13.57;;
12385;SDS011;6257;57.634;18.310;2024-03-02T03:51:47;21.97;;;13.73;;
12385;SDS011;6257;57.634;18.310;2024-03-02T03:54:14;22.23;;;14.27;;
12385;SDS011;6257;57.634;18.310;2024-03-02T03:56:41;18.03;;;13.27;;
12385;SDS011;6257;57.634;18.310;2024-03-02T03:59:08;22.63;;;14.43;;
12385;SDS011;6257;57.634;18.310;2024-03-02T04:01:35;22.47;;;14.53;;
12385;SDS011;6257;57.634;18.310;2024-03-02T04:04:04;19.03;;;12.67;;
12385;SDS011;6257;57.634;18.310;2024-03-02T04:06:31;17.10;;;13.70;;
12385;SDS011;6257;57.634;18.310;2024-03-02T04:08:58;17.70;;;12.63;;
12385;SDS011;6257;57.634;18.310;2024-03-02T04:11:25;18.40;;;13.40;;
12385;SDS011;6257;57.634;18.310;2024-03-02T04:13:52;20.90;;;13.97;;
12385;SDS011;6257;57.634;18.310;2024-03-02T04:16:19;18.00;;;12.70;;
12385;SDS011;6257;57.634;18.310;2024-03-02T04:18:46;20.60;;;13.37;;
12385;SDS011;6257;57.634;18.310;2024-03-02T04:21:14;19.53;;;13.30;;
12385;SDS011;6257;57.634;18.310;2024-03-02T04:23:41;18.90;;;12.53;;
12385;SDS011;6257;57.634;18.310;2024-03-02T04:26:08;17.53;;;12.17;;
12385;SDS011;6257;57.634;18.310;2024-03-02T04:28:35;17.57;;;11.53;;
12385;SDS011;6257;57.634;18.310;2024-03-02T04:31:02;18.90;;;12.37;;
12385;SDS011;6257;57.634;18.310;2024-03-02T04:33:29;16.67;;;12.27;;
12385;SDS011;6257;57.634;18.310;2024-03-02T04:35:56;17.90;;;12.43;;
12385;SDS011;6257;57.634;18.310;2024-03-02T04:38:25;17.73;;;12.30;;
12385;SDS011;6257;57.634;18.310;2024-03-02T04:40:54;16.67;;;12.20;;
12385;SDS011;6257;57.634;18.310;2024-03-02T04:43:20;18.63;;;12.30;;
12385;SDS011;6257;57.634;18.310;2024-03-02T04:45:47;17.40;;;12.80;;
12385;SDS011;6257;57.634;18.310;2024-03-02T04:48:15;16.47;;;11.80;;
12385;SDS011;6257;57.634;18.310;2024-03-02T04:50:42;18.50;;;11.10;;
12385;SDS011;6257;57.634;18.310;2024-03-02T04:53:08;18.63;;;11.63;;
12385;SDS011;6257;57.634;18.310;2024-03-02T04:55:37;17.40;;;11.77;;
12385;SDS011;6257;57.634;18.310;2024-03-02T04:58:31;17.57;;;11.80;;
12385;SDS011;6257;57.634;18.310;2024-03-02T05:00:58;17.67;;;11.37;;
12385;SDS011;6257;57.634;18.310;2024-03-02T05:03:25;22.47;;;12.03;;
12385;SDS011;6257;57.634;18.310;2024-03-02T05:05:52;15.90;;;10.93;;
12385;SDS011;6257;57.634;18.310;2024-03-02T05:08:19;12.97;;;10.47;;
12385;SDS011;6257;57.634;18.310;2024-03-02T05:10:46;17.73;;;11.53;;
12385;SDS011;6257;57.634;18.310;2024-03-02T05:13:13;15.80;;;10.43;;
12385;SDS011;6257;57.634;18.310;2024-03-02T05:15:40;15.90;;;11.63;;
12385;SDS011;6257;57.634;18.310;2024-03-02T05:18:08;13.83;;;10.97;;
12385;SDS011;6257;57.634;18.310;2024-03-02T05:20:35;17.07;;;11.17;;
12385;SDS011;6257;57.634;18.310;2024-03-02T05:23:02;16.73;;;10.17;;
12385;SDS011;6257;57.634;18.310;2024-03-02T05:25:30;15.17;;;11.43;;
12385;SDS011;6257;57.634;18.310;2024-03-02T05:27:57;16.13;;;11.17;;
12385;SDS011;6257;57.634;18.310;2024-03-02T05:30:24;16.73;;;10.47;;
12385;SDS011;6257;57.634;18.310;2024-03-02T05:32:53;15.53;;;10.93;;
12385;SDS011;6257;57.634;18.310;2024-03-02T05:35:20;14.07;;;10.27;;
12385;SDS011;6257;57.634;18.310;2024-03-02T05:37:47;17.37;;;10.50;;
12385;SDS011;6257;57.634;18.310;2024-03-02T05:40:14;17.17;;;10.57;;
12385;SDS011;6257;57.634;18.310;2024-03-02T05:42:41;16.23;;;11.13;;
12385;SDS011;6257;57.634;18.310;2024-03-02T05:45:08;14.07;;;9.83;;
12385;SDS011;6257;57.634;18.310;2024-03-02T05:47:35;16.20;;;10.30;;
12385;SDS011;6257;57.634;18.310;2024-03-02T05:50:05;16.83;;;9.83;;
12385;SDS011;6257;57.634;18.310;2024-03-02T05:52:33;15.97;;;10.63;;
12385;SDS011;6257;57.634;18.310;2024-03-02T05:55:00;15.03;;;10.20;;
12385;SDS011;6257;57.634;18.310;2024-03-02T05:57:27;15.27;;;9.97;;
12385;SDS011;6257;57.634;18.310;2024-03-02T06:00:10;13.40;;;9.77;;
12385;SDS011;6257;57.634;18.310;2024-03-02T06:02:39;18.30;;;9.90;;
12385;SDS011;6257;57.634;18.310;2024-03-02T06:05:07;14.37;;;10.30;;
12385;SDS011;6257;57.634;18.310;2024-03-02T06:07:35;15.40;;;9.87;;
12385;SDS011;6257;57.634;18.310;2024-03-02T06:10:02;16.00;;;9.63;;
12385;SDS011;6257;57.634;18.310;2024-03-02T06:12:32;12.47;;;9.23;;
12385;SDS011;6257;57.634;18.310;2024-03-02T06:14:59;14.07;;;10.67;;
12385;SDS011;6257;57.634;18.310;2024-03-02T06:17:26;15.40;;;10.47;;
12385;SDS011;6257;57.634;18.310;2024-03-02T06:19:53;15.27;;;9.87;;
12385;SDS011;6257;57.634;18.310;2024-03-02T06:22:25;12.27;;;9.73;;
12385;SDS011;6257;57.634;18.310;2024-03-02T06:24:52;18.53;;;10.70;;
12385;SDS011;6257;57.634;18.310;2024-03-02T06:27:20;13.13;;;9.23;;
12385;SDS011;6257;57.634;18.310;2024-03-02T06:29:49;13.13;;;9.77;;
12385;SDS011;6257;57.634;18.310;2024-03-02T06:32:17;15.00;;;9.63;;
12385;SDS011;6257;57.634;18.310;2024-03-02T06:34:44;14.90;;;10.17;;
12385;SDS011;6257;57.634;18.310;2024-03-02T06:37:11;15.20;;;9.77;;
12385;SDS011;6257;57.634;18.310;2024-03-02T06:39:40;16.13;;;10.00;;
12385;SDS011;6257;57.634;18.310;2024-03-02T06:42:10;17.23;;;9.67;;
12385;SDS011;6257;57.634;18.310;2024-03-02T06:44:39;15.13;;;10.53;;
12385;SDS011;6257;57.634;18.310;2024-03-02T06:47:06;12.60;;;9.50;;
12385;SDS011;6257;57.634;18.310;2024-03-02T06:49:33;13.60;;;9.77;;
12385;SDS011;6257;57.634;18.310;2024-03-02T06:52:04;17.90;;;10.13;;
12385;SDS011;6257;57.634;18.310;2024-03-02T06:54:31;17.13;;;10.63;;
12385;SDS011;6257;57.634;18.310;2024-03-02T06:57:01;13.83;;;9.60;;
12385;SDS011;6257;57.634;18.310;2024-03-02T06:59:28;16.30;;;9.60;;
12385;SDS011;6257;57.634;18.310;2024-03-02T07:01:55;15.33;;;10.50;;
12385;SDS011;6257;57.634;18.310;2024-03-02T07:04:23;14.77;;;9.33;;
12385;SDS011;6257;57.634;18.310;2024-03-02T07:06:50;14.67;;;9.50;;
12385;SDS011;6257;57.634;18.310;2024-03-02T07:09:17;14.07;;;9.23;;
12385;SDS011;6257;57.634;18.310;2024-03-02T07:11:47;13.83;;;9.83;;
12385;SDS011;6257;57.634;18.310;2024-03-02T07:14:16;15.00;;;9.93;;
12385;SDS011;6257;57.634;18.310;2024-03-02T07:16:43;13.87;;;10.17;;
12385;SDS011;6257;57.634;18.310;2024-03-02T07:19:10;14.97;;;9.90;;
12385;SDS011;6257;57.634;18.310;2024-03-02T07:21:37;15.40;;;9.70;;
12385;SDS011;6257;57.634;18.310;2024-03-02T07:24:04;14.17;;;10.17;;
12385;SDS011;6257;57.634;18.310;2024-03-02T07:26:34;15.40;;;9.30;;
12385;SDS011;6257;57.634;18.310;2024-03-02T07:29:01;14.60;;;9.20;;
12385;SDS011;6257;57.634;18.310;2024-03-02T07:31:29;15.83;;;9.73;;
12385;SDS011;6257;57.634;18.310;2024-03-02T07:33:56;13.27;;;9.77;;
12385;SDS011;6257;57.634;18.310;2024-03-02T07:36:23;12.93;;;9.67;;
12385;SDS011;6257;57.634;18.310;2024-03-02T07:38:50;14.67;;;10.13;;
12385;SDS011;6257;57.634;18.310;2024-03-02T07:41:17;12.70;;;9.23;;
12385;SDS011;6257;57.634;18.310;2024-03-02T07:43:44;13.17;;;9.73;;
12385;SDS011;6257;57.634;18.310;2024-03-02T07:46:11;15.40;;;10.07;;
12385;SDS011;6257;57.634;18.310;2024-03-02T07:48:40;13.53;;;10.10;;
12385;SDS011;6257;57.634;18.310;2024-03-02T07:51:08;12.97;;;9.70;;
12385;SDS011;6257;57.634;18.310;2024-03-02T07:53:35;14.30;;;9.60;;
12385;SDS011;6257;57.634;18.310;2024-03-02T07:56:03;13.33;;;10.07;;
12385;SDS011;6257;57.634;18.310;2024-03-02T07:58:31;15.13;;;10.33;;
12385;SDS011;6257;57.634;18.310;2024-03-02T08:00:58;15.87;;;10.37;;
12385;SDS011;6257;57.634;18.310;2024-03-02T08:03:26;14.20;;;10.23;;
12385;SDS011;6257;57.634;18.310;2024-03-02T08:05:55;15.37;;;10.67;;
12385;SDS011;6257;57.634;18.310;2024-03-02T08:08:22;15.83;;;10.13;;
12385;SDS011;6257;57.634;18.310;2024-03-02T08:10:49;14.63;;;10.20;;
12385;SDS011;6257;57.634;18.310;2024-03-02T08:13:16;13.63;;;9.87;;
12385;SDS011;6257;57.634;18.310;2024-03-02T08:15:43;14.57;;;10.10;;
12385;SDS011;6257;57.634;18.310;2024-03-02T08:18:10;14.13;;;10.30;;
12385;SDS011;6257;57.634;18.310;2024-03-02T08:20:37;19.57;;;11.00;;
12385;SDS011;6257;57.634;18.310;2024-03-02T08:23:05;13.57;;;10.53;;
12385;SDS011;6257;57.634;18.310;2024-03-02T08:25:33;13.83;;;10.43;;
12385;SDS011;6257;57.634;18.310;2024-03-02T08:28:00;13.80;;;10.40;;
12385;SDS011;6257;57.634;18.310;2024-03-02T08:30:27;18.10;;;10.90;;
12385;SDS011;6257;57.634;18.310;2024-03-02T08:32:54;17.47;;;10.60;;
12385;SDS011;6257;57.634;18.310;2024-03-02T08:35:21;15.00;;;10.53;;
12385;SDS011;6257;57.634;18.310;2024-03-02T08:37:48;17.23;;;10.47;;
12385;SDS011;6257;57.634;18.310;2024-03-02T08:40:17;14.67;;;10.37;;
12385;SDS011;6257;57.634;18.310;2024-03-02T08:42:44;13.83;;;10.47;;
12385;SDS011;6257;57.634;18.310;2024-03-02T08:45:11;16.57;;;10.33;;
12385;SDS011;6257;57.634;18.310;2024-03-02T08:47:38;13.90;;;9.47;;
12385;SDS011;6257;57.634;18.310;2024-03-02T08:50:06;14.60;;;10.33;;
12385;SDS011;6257;57.634;18.310;2024-03-02T08:52:34;16.50;;;10.23;;
12385;SDS011;6257;57.634;18.310;2024-03-02T08:55:01;15.60;;;10.83;;
12385;SDS011;6257;57.634;18.310;2024-03-02T08:57:29;16.07;;;10.83;;
12385;SDS011;6257;57.634;18.310;2024-03-02T08:59:56;16.10;;;11.23;;
12385;SDS011;6257;57.634;18.310;2024-03-02T09:02:23;13.60;;;10.27;;
12385;SDS011;6257;57.634;18.310;2024-03-02T09:04:51;15.43;;;10.50;;
12385;SDS011;6257;57.634;18.310;2024-03-02T09:07:18;13.67;;;10.53;;
12385;SDS011;6257;57.634;18.310;2024-03-02T09:09:45;14.97;;;10.20;;
12385;SDS011;6257;57.634;18.310;2024-03-02T09:12:12;14.03;;;10.10;;
12385;SDS011;6257;57.634;18.310;2024-03-02T09:14:40;17.57;;;10.47;;
12385;SDS011;6257;57.634;18.310;2024-03-02T09:17:08;15.77;;;10.63;;
12385;SDS011;6257;57.634;18.310;2024-03-02T09:19:36;17.93;;;10.77;;
12385;SDS011;6257;57.634;18.310;2024-03-02T09:22:04;16.10;;;10.63;;
12385;SDS011;6257;57.634;18.310;2024-03-02T09:24:31;17.27;;;10.20;;
12385;SDS011;6257;57.634;18.310;2024-03-02T09:26:59;15.30;;;10.83;;
12385;SDS011;6257;57.634;18.310;2024-03-02T09:29:26;18.60;;;10.90;;
12385;SDS011;6257;57.634;18.310;2024-03-02T09:31:55;19.87;;;11.17;;
12385;SDS011;6257;57.634;18.310;2024-03-02T09:34:21;16.17;;;10.20;;
12385;SDS011;6257;57.634;18.310;2024-03-02T09:36:49;19.10;;;11.43;;
12385;SDS011;6257;57.634;18.310;2024-03-02T09:39:17;15.20;;;11.27;;
12385;SDS011;6257;57.634;18.310;2024-03-02T09:41:45;21.20;;;11.13;;
12385;SDS011;6257;57.634;18.310;2024-03-02T09:44:13;15.93;;;10.67;;
12385;SDS011;6257;57.634;18.310;2024-03-02T09:46:40;22.23;;;11.53;;
12385;SDS011;6257;57.634;18.310;2024-03-02T09:49:10;22.00;;;11.43;;
12385;SDS011;6257;57.634;18.310;2024-03-02T09:51:38;28.07;;;12.80;;
12385;SDS011;6257;57.634;18.310;2024-03-02T09:54:06;23.37;;;11.33;;
12385;SDS011;6257;57.634;18.310;2024-03-02T09:56:34;23.60;;;11.20;;
12385;SDS011;6257;57.634;18.310;2024-03-02T09:59:01;19.07;;;11.07;;
12385;SDS011;6257;57.634;18.310;2024-03-02T10:01:28;26.30;;;11.40;;
12385;SDS011;6257;57.634;18.310;2024-03-02T10:03:55;30.27;;;11.60;;
12385;SDS011;6257;57.634;18.310;2024-03-02T10:06:26;27.47;;;12.50;;
12385;SDS011;6257;57.634;18.310;2024-03-02T10:08:55;22.57;;;11.33;;
12385;SDS011;6257;57.634;18.310;2024-03-02T10:11:27;23.43;;;12.07;;
12385;SDS011;6257;57.634;18.310;2024-03-02T10:14:05;21.10;;;11.80;;
12385;SDS011;6257;57.634;18.310;2024-03-02T10:16:37;18.80;;;10.97;;
12385;SDS011;6257;57.634;18.310;2024-03-02T10:19:17;22.53;;;12.23;;
12385;SDS011;6257;57.634;18.310;2024-03-02T10:21:47;25.73;;;12.03;;
12385;SDS011;6257;57.634;18.310;2024-03-02T10:24:15;23.93;;;11.67;;
12385;SDS011;6257;57.634;18.310;2024-03-02T10:26:42;22.70;;;11.30;;
12385;SDS011;6257;57.634;18.310;2024-03-02T10:29:09;24.30;;;12.10;;
12385;SDS011;6257;57.634;18.310;2024-03-02T10:31:37;23.53;;;11.83;;
12385;SDS011;6257;57.634;18.310;2024-03-02T10:34:04;23.07;;;12.30;;
12385;SDS011;6257;57.634;18.310;2024-03-02T10:36:32;20.63;;;12.10;;
12385;SDS011;6257;57.634;18.310;2024-03-02T10:39:03;28.60;;;12.50;;
12385;SDS011;6257;57.634;18.310;2024-03-02T10:41:32;37.30;;;13.53;;
12385;SDS011;6257;57.634;18.310;2024-03-02T10:44:01;19.40;;;11.97;;
12385;SDS011;6257;57.634;18.310;2024-03-02T10:46:30;25.47;;;12.00;;
12385;SDS011;6257;57.634;18.310;2024-03-02T10:49:01;17.77;;;10.80;;
12385;SDS011;6257;57.634;18.310;2024-03-02T10:51:29;24.80;;;12.23;;
12385;SDS011;6257;57.634;18.310;2024-03-02T10:53:57;17.47;;;11.97;;
12385;SDS011;6257;57.634;18.310;2024-03-02T10:56:29;23.57;;;12.20;;
12385;SDS011;6257;57.634;18.310;2024-03-02T10:59:01;21.40;;;13.10;;
12385;SDS011;6257;57.634;18.310;2024-03-02T11:01:31;23.20;;;12.73;;
12385;SDS011;6257;57.634;18.310;2024-03-02T11:03:59;20.23;;;12.57;;
12385;SDS011;6257;57.634;18.310;2024-03-02T11:06:30;22.40;;;12.57;;
12385;SDS011;6257;57.634;18.310;2024-03-02T11:09:04;52.10;;;14.70;;
12385;SDS011;6257;57.634;18.310;2024-03-02T11:11:40;28.90;;;13.17;;
12385;SDS011;6257;57.634;18.310;2024-03-02T11:14:10;21.27;;;12.17;;
12385;SDS011;6257;57.634;18.310;2024-03-02T11:16:40;23.03;;;11.90;;
12385;SDS011;6257;57.634;18.310;2024-03-02T11:19:10;34.50;;;13.80;;
12385;SDS011;6257;57.634;18.310;2024-03-02T11:21:38;30.17;;;13.50;;
12385;SDS011;6257;57.634;18.310;2024-03-02T11:27:02;25.03;;;13.07;;
12385;SDS011;6257;57.634;18.310;2024-03-02T11:29:45;27.90;;;13.40;;
12385;SDS011;6257;57.634;18.310;2024-03-02T11:32:17;34.17;;;13.63;;
12385;SDS011;6257;57.634;18.310;2024-03-02T11:34:47;23.70;;;12.73;;
12385;SDS011;6257;57.634;18.310;2024-03-02T11:37:16;41.20;;;14.40;;
12385;SDS011;6257;57.634;18.310;2024-03-02T11:39:44;23.37;;;13.40;;
12385;SDS011;6257;57.634;18.310;2024-03-02T11:42:13;26.43;;;13.27;;
12385;SDS011;6257;57.634;18.310;2024-03-02T11:44:42;18.93;;;13.03;;
12385;SDS011;6257;57.634;18.310;2024-03-02T11:47:11;22.00;;;13.03;;
12385;SDS011;6257;57.634;18.310;2024-03-02T11:49:41;26.07;;;13.53;;
12385;SDS011;6257;57.634;18.310;2024-03-02T11:52:09;19.80;;;13.20;;
12385;SDS011;6257;57.634;18.310;2024-03-02T11:54:37;23.73;;;12.97;;
12385;SDS011;6257;57.634;18.310;2024-03-02T11:57:05;28.53;;;13.00;;
12385;SDS011;6257;57.634;18.310;2024-03-02T11:59:34;21.37;;;13.30;;
12385;SDS011;6257;57.634;18.310;2024-03-02T12:02:01;23.40;;;13.03;;
12385;SDS011;6257;57.634;18.310;2024-03-02T12:04:29;24.60;;;13.40;;
12385;SDS011;6257;57.634;18.310;2024-03-02T12:06:57;25.40;;;14.00;;
12385;SDS011;6257;57.634;18.310;2024-03-02T12:09:26;27.67;;;13.80;;
12385;SDS011;6257;57.634;18.310;2024-03-02T12:12:04;19.10;;;12.60;;
12385;SDS011;6257;57.634;18.310;2024-03-02T12:14:31;25.30;;;14.17;;
12385;SDS011;6257;57.634;18.310;2024-03-02T12:17:00;31.00;;;14.23;;
12385;SDS011;6257;57.634;18.310;2024-03-02T12:19:28;23.10;;;13.10;;
12385;SDS011;6257;57.634;18.310;2024-03-02T12:21:55;29.07;;;14.07;;
12385;SDS011;6257;57.634;18.310;2024-03-02T12:24:23;26.33;;;13.77;;
12385;SDS011;6257;57.634;18.310;2024-03-02T12:26:52;26.37;;;14.73;;
12385;SDS011;6257;57.634;18.310;2024-03-02T12:29:20;22.33;;;13.40;;
12385;SDS011;6257;57.634;18.310;2024-03-02T12:31:48;21.30;;;13.30;;
12385;SDS011;6257;57.634;18.310;2024-03-02T12:34:17;22.97;;;14.67;;
12385;SDS011;6257;57.634;18.310;2024-03-02T12:36:45;25.23;;;13.73;;
12385;SDS011;6257;57.634;18.310;2024-03-02T12:39:14;30.30;;;14.77;;
12385;SDS011;6257;57.634;18.310;2024-03-02T12:41:42;30.50;;;14.60;;
12385;SDS011;6257;57.634;18.310;2024-03-02T12:44:09;23.40;;;13.53;;
12385;SDS011;6257;57.634;18.310;2024-03-02T12:46:37;24.90;;;14.20;;
12385;SDS011;6257;57.634;18.310;2024-03-02T12:49:07;25.47;;;14.60;;
12385;SDS011;6257;57.634;18.310;2024-03-02T12:51:39;29.17;;;14.70;;
12385;SDS011;6257;57.634;18.310;2024-03-02T12:54:07;35.33;;;16.00;;
12385;SDS011;6257;57.634;18.310;2024-03-02T12:56:35;30.50;;;14.57;;
12385;SDS011;6257;57.634;18.310;2024-03-02T12:59:02;28.60;;;14.07;;
12385;SDS011;6257;57.634;18.310;2024-03-02T13:01:30;25.90;;;14.53;;
12385;SDS011;6257;57.634;18.310;2024-03-02T13:03:57;39.90;;;16.80;;
12385;SDS011;6257;57.634;18.310;2024-03-02T13:06:25;27.70;;;14.13;;
12385;SDS011;6257;57.634;18.310;2024-03-02T13:08:55;32.80;;;15.30;;
12385;SDS011;6257;57.634;18.310;2024-03-02T13:11:22;39.17;;;16.17;;
12385;SDS011;6257;57.634;18.310;2024-03-02T13:13:50;31.53;;;15.40;;
12385;SDS011;6257;57.634;18.310;2024-03-02T13:16:17;27.83;;;15.90;;
12385;SDS011;6257;57.634;18.310;2024-03-02T13:18:46;27.87;;;13.60;;
12385;SDS011;6257;57.634;18.310;2024-03-02T13:21:13;27.47;;;14.93;;
12385;SDS011;6257;57.634;18.310;2024-03-02T13:23:40;29.53;;;15.87;;
12385;SDS011;6257;57.634;18.310;2024-03-02T13:26:09;29.23;;;16.07;;
12385;SDS011;6257;57.634;18.310;2024-03-02T13:28:37;31.90;;;14.77;;
12385;SDS011;6257;57.634;18.310;2024-03-02T13:31:05;30.53;;;17.13;;
12385;SDS011;6257;57.634;18.310;2024-03-02T13:33:32;25.30;;;16.47;;
12385;SDS011;6257;57.634;18.310;2024-03-02T13:35:59;32.10;;;15.87;;
12385;SDS011;6257;57.634;18.310;2024-03-02T13:38:27;28.63;;;15.60;;
12385;SDS011;6257;57.634;18.310;2024-03-02T13:40:54;26.53;;;16.30;;
12385;SDS011;6257;57.634;18.310;2024-03-02T13:43:23;28.40;;;15.87;;
12385;SDS011;6257;57.634;18.310;2024-03-02T13:45:50;25.23;;;15.17;;
12385;SDS011;6257;57.634;18.310;2024-03-02T13:48:18;29.60;;;16.30;;
12385;SDS011;6257;57.634;18.310;2024-03-02T13:50:46;30.30;;;16.23;;
12385;SDS011;6257;57.634;18.310;2024-03-02T13:53:14;28.27;;;16.47;;
12385;SDS011;6257;57.634;18.310;2024-03-02T13:55:41;26.60;;;15.70;;
12385;SDS011;6257;57.634;18.310;2024-03-02T13:58:08;32.87;;;16.33;;
12385;SDS011;6257;57.634;18.310;2024-03-02T14:00:38;26.37;;;15.70;;
12385;SDS011;6257;57.634;18.310;2024-03-02T14:03:05;27.37;;;16.03;;
12385;SDS011;6257;57.634;18.310;2024-03-02T14:05:33;37.50;;;16.80;;
12385;SDS011;6257;57.634;18.310;2024-03-02T14:08:00;33.07;;;16.50;;
12385;SDS011;6257;57.634;18.310;2024-03-02T14:10:27;29.10;;;16.13;;
12385;SDS011;6257;57.634;18.310;2024-03-02T14:12:54;26.77;;;16.43;;
12385;SDS011;6257;57.634;18.310;2024-03-02T14:15:21;29.60;;;17.53;;
12385;SDS011;6257;57.634;18.310;2024-03-02T14:17:50;26.43;;;16.33;;
12385;SDS011;6257;57.634;18.310;2024-03-02T14:20:18;33.67;;;17.03;;
12385;SDS011;6257;57.634;18.310;2024-03-02T14:22:47;26.43;;;16.63;;
12385;SDS011;6257;57.634;18.310;2024-03-02T14:25:15;31.53;;;17.17;;
12385;SDS011;6257;57.634;18.310;2024-03-02T14:27:42;26.37;;;15.57;;
12385;SDS011;6257;57.634;18.310;2024-03-02T14:30:09;25.20;;;17.20;;
12385;SDS011;6257;57.634;18.310;2024-03-02T14:32:37;28.63;;;16.50;;
12385;SDS011;6257;57.634;18.310;2024-03-02T14:35:06;26.77;;;16.93;;